Terminal Aerodrome Forecast
Issued by NWS

Home | Current Version | Previous Version | Graphics & Text | Print | Product List | Glossary On
Versions: 1 2 3 4 5 6 7 8 9 10 11 12 13 14 15 16 17 18 19 20 21 22
626
FTUS43 KGRB 200730 AAA
TAFAUW
TAF AMD
KAUW 200730Z 2008/2106 VRB03KT P6SM VCSH BKN008
      TEMPO 2008/2010 SCT008 BKN015
     FM201000 30007KT P6SM SCT015 BKN100
     FM201800 30007KT P6SM SCT030 BKN100
     FM210100 VRB03KT P6SM SKC=

USA.gov is the U.S. government's official web portal to all federal, state and local government web resources and services.